Fort Jennings, Ohio
Current Conditions -  °F | °C
As of 2:53 AM on Wednesday 26 Nov 2014 (Local Time) from KAOH Reporting Station
Overcast Overcast  
Wind Chill: 28°   Ceiling: 1400
Heat Index: 28°   Visibility: 10mi
Dew Point: 20°   Wind: 3mph
Humidity: 72%   Direction: NA
Pressure: 30.17"   Gusts: NA
Location:  40.91°N, 84.3°W
Report Text: KAOH 260753Z AUTO VRB03KT 10SM OVC014 M02/M07 A3017 RMK AO2 SLP226 T10221067
Loading
Personal Weather Stations






























Interactive Weather Map New forecast layout! Learn more

10-Day Weather Forecast

Advertisements
Track Severe Weather on mobile